sensor_id;sensor_type;location;lat;lon;timestamp;temperature;humidity
15646;DHT22;7922;43.622;1.476;2022-09-09T00:01:27;20.20;99.90
15646;DHT22;7922;43.622;1.476;2022-09-09T00:04:21;20.10;99.90
15646;DHT22;7922;43.622;1.476;2022-09-09T00:06:55;20.10;99.90
15646;DHT22;7922;43.622;1.476;2022-09-09T00:09:27;20.20;99.90
15646;DHT22;7922;43.622;1.476;2022-09-09T00:14:47;20.20;99.90
15646;DHT22;7922;43.622;1.476;2022-09-09T00:20:01;20.20;99.90
15646;DHT22;7922;43.622;1.476;2022-09-09T00:22:29;20.20;99.90
15646;DHT22;7922;43.622;1.476;2022-09-09T00:25:12;20.30;99.90
15646;DHT22;7922;43.622;1.476;2022-09-09T00:27:46;20.30;99.90
15646;DHT22;7922;43.622;1.476;2022-09-09T00:32:49;20.30;99.90
15646;DHT22;7922;43.622;1.476;2022-09-09T00:35:17;20.30;99.90
15646;DHT22;7922;43.622;1.476;2022-09-09T00:37:45;20.20;99.90
15646;DHT22;7922;43.622;1.476;2022-09-09T00:40:34;20.30;99.90
15646;DHT22;7922;43.622;1.476;2022-09-09T00:43:36;20.20;99.90
15646;DHT22;7922;43.622;1.476;2022-09-09T00:57:38;20.30;99.90
15646;DHT22;7922;43.622;1.476;2022-09-09T01:00:31;20.30;99.90
15646;DHT22;7922;43.622;1.476;2022-09-09T01:03:37;20.30;99.90
15646;DHT22;7922;43.622;1.476;2022-09-09T01:14:27;20.30;99.90
15646;DHT22;7922;43.622;1.476;2022-09-09T01:16:59;20.30;99.90
15646;DHT22;7922;43.622;1.476;2022-09-09T01:27:55;20.20;99.90
15646;DHT22;7922;43.622;1.476;2022-09-09T01:30:22;20.10;99.90
15646;DHT22;7922;43.622;1.476;2022-09-09T01:32:50;20.10;99.90
15646;DHT22;7922;43.622;1.476;2022-09-09T01:38:02;20.00;99.90
15646;DHT22;7922;43.622;1.476;2022-09-09T01:40:28;20.00;99.90
15646;DHT22;7922;43.622;1.476;2022-09-09T01:42:54;20.00;99.90
15646;DHT22;7922;43.622;1.476;2022-09-09T01:45:21;20.10;99.90
15646;DHT22;7922;43.622;1.476;2022-09-09T01:47:47;20.10;99.90
15646;DHT22;7922;43.622;1.476;2022-09-09T01:50:15;20.00;99.90
15646;DHT22;7922;43.622;1.476;2022-09-09T01:52:43;20.00;99.90
15646;DHT22;7922;43.622;1.476;2022-09-09T01:55:10;19.90;99.90
15646;DHT22;7922;43.622;1.476;2022-09-09T02:00:33;19.60;99.90
15646;DHT22;7922;43.622;1.476;2022-09-09T02:03:24;19.90;99.90
15646;DHT22;7922;43.622;1.476;2022-09-09T02:08:47;19.80;99.90
15646;DHT22;7922;43.622;1.476;2022-09-09T02:11:16;19.80;99.90
15646;DHT22;7922;43.622;1.476;2022-09-09T02:13:45;19.80;99.90
15646;DHT22;7922;43.622;1.476;2022-09-09T02:16:28;19.70;99.90
15646;DHT22;7922;43.622;1.476;2022-09-09T02:21:44;19.50;99.90
15646;DHT22;7922;43.622;1.476;2022-09-09T02:24:13;19.60;99.90
15646;DHT22;7922;43.622;1.476;2022-09-09T02:26:42;19.70;99.90
15646;DHT22;7922;43.622;1.476;2022-09-09T02:29:17;19.60;99.90
15646;DHT22;7922;43.622;1.476;2022-09-09T02:31:44;19.60;99.90
15646;DHT22;7922;43.622;1.476;2022-09-09T02:34:11;19.60;99.90
15646;DHT22;7922;43.622;1.476;2022-09-09T02:36:41;19.60;99.90
15646;DHT22;7922;43.622;1.476;2022-09-09T02:39:09;19.60;99.90
15646;DHT22;7922;43.622;1.476;2022-09-09T02:41:38;19.60;99.90
15646;DHT22;7922;43.622;1.476;2022-09-09T02:44:15;19.70;99.90
15646;DHT22;7922;43.622;1.476;2022-09-09T02:50:05;19.60;99.90
15646;DHT22;7922;43.622;1.476;2022-09-09T02:58:02;19.50;99.90
15646;DHT22;7922;43.622;1.476;2022-09-09T03:00:30;19.40;99.90
15646;DHT22;7922;43.622;1.476;2022-09-09T03:02:56;19.40;99.90
15646;DHT22;7922;43.622;1.476;2022-09-09T03:05:22;19.40;99.90
15646;DHT22;7922;43.622;1.476;2022-09-09T03:07:47;19.40;99.90
15646;DHT22;7922;43.622;1.476;2022-09-09T03:10:15;19.50;99.90
15646;DHT22;7922;43.622;1.476;2022-09-09T03:12:40;19.50;99.90
15646;DHT22;7922;43.622;1.476;2022-09-09T03:15:07;19.50;99.90
15646;DHT22;7922;43.622;1.476;2022-09-09T03:17:32;19.60;99.90
15646;DHT22;7922;43.622;1.476;2022-09-09T03:19:58;19.60;99.90
15646;DHT22;7922;43.622;1.476;2022-09-09T03:22:24;19.60;99.90
15646;DHT22;7922;43.622;1.476;2022-09-09T03:24:51;19.60;99.90
15646;DHT22;7922;43.622;1.476;2022-09-09T03:27:17;19.60;99.90
15646;DHT22;7922;43.622;1.476;2022-09-09T03:29:45;19.60;99.90
15646;DHT22;7922;43.622;1.476;2022-09-09T03:32:12;19.60;99.90
15646;DHT22;7922;43.622;1.476;2022-09-09T03:34:38;19.70;99.90
15646;DHT22;7922;43.622;1.476;2022-09-09T03:37:06;19.70;99.90
15646;DHT22;7922;43.622;1.476;2022-09-09T03:39:31;19.70;99.90
15646;DHT22;7922;43.622;1.476;2022-09-09T03:41:57;19.60;99.90
15646;DHT22;7922;43.622;1.476;2022-09-09T03:44:23;19.60;99.90
15646;DHT22;7922;43.622;1.476;2022-09-09T03:46:48;19.60;99.90
15646;DHT22;7922;43.622;1.476;2022-09-09T03:49:14;19.60;99.90
15646;DHT22;7922;43.622;1.476;2022-09-09T03:51:41;19.60;99.90
15646;DHT22;7922;43.622;1.476;2022-09-09T03:54:07;19.50;99.90
15646;DHT22;7922;43.622;1.476;2022-09-09T03:56:35;19.50;99.90
15646;DHT22;7922;43.622;1.476;2022-09-09T03:59:02;19.60;99.90
15646;DHT22;7922;43.622;1.476;2022-09-09T04:01:28;19.50;99.90
15646;DHT22;7922;43.622;1.476;2022-09-09T04:03:54;19.50;99.90
15646;DHT22;7922;43.622;1.476;2022-09-09T04:06:24;19.40;99.90
15646;DHT22;7922;43.622;1.476;2022-09-09T04:08:50;19.40;99.90
15646;DHT22;7922;43.622;1.476;2022-09-09T04:11:17;19.40;99.90
15646;DHT22;7922;43.622;1.476;2022-09-09T04:13:43;19.40;99.90
15646;DHT22;7922;43.622;1.476;2022-09-09T04:16:11;19.30;99.90
15646;DHT22;7922;43.622;1.476;2022-09-09T04:18:38;19.30;99.90
15646;DHT22;7922;43.622;1.476;2022-09-09T04:21:05;19.30;99.90
15646;DHT22;7922;43.622;1.476;2022-09-09T04:23:32;19.40;99.90
15646;DHT22;7922;43.622;1.476;2022-09-09T04:26:00;19.30;99.90
15646;DHT22;7922;43.622;1.476;2022-09-09T04:28:30;19.30;99.90
15646;DHT22;7922;43.622;1.476;2022-09-09T04:30:56;19.30;99.90
15646;DHT22;7922;43.622;1.476;2022-09-09T04:33:26;19.20;99.90
15646;DHT22;7922;43.622;1.476;2022-09-09T04:35:53;18.50;99.90
15646;DHT22;7922;43.622;1.476;2022-09-09T04:38:19;19.20;99.90
15646;DHT22;7922;43.622;1.476;2022-09-09T04:40:50;19.20;99.90
15646;DHT22;7922;43.622;1.476;2022-09-09T04:43:17;19.10;99.90
15646;DHT22;7922;43.622;1.476;2022-09-09T04:45:46;19.10;99.90
15646;DHT22;7922;43.622;1.476;2022-09-09T04:48:12;19.10;99.90
15646;DHT22;7922;43.622;1.476;2022-09-09T04:50:38;19.10;99.90
15646;DHT22;7922;43.622;1.476;2022-09-09T04:53:04;19.10;99.90
15646;DHT22;7922;43.622;1.476;2022-09-09T04:55:31;19.10;99.90
15646;DHT22;7922;43.622;1.476;2022-09-09T04:57:57;19.10;99.90
15646;DHT22;7922;43.622;1.476;2022-09-09T05:00:25;19.10;99.90
15646;DHT22;7922;43.622;1.476;2022-09-09T05:02:51;19.10;99.90
15646;DHT22;7922;43.622;1.476;2022-09-09T05:05:17;19.20;99.90
15646;DHT22;7922;43.622;1.476;2022-09-09T05:07:43;19.10;99.90
15646;DHT22;7922;43.622;1.476;2022-09-09T05:10:09;19.10;99.90
15646;DHT22;7922;43.622;1.476;2022-09-09T05:12:36;19.10;99.90
15646;DHT22;7922;43.622;1.476;2022-09-09T05:15:01;19.10;99.90
15646;DHT22;7922;43.622;1.476;2022-09-09T05:17:27;19.20;99.90
15646;DHT22;7922;43.622;1.476;2022-09-09T05:19:53;19.20;99.90
15646;DHT22;7922;43.622;1.476;2022-09-09T05:22:20;19.20;99.90
15646;DHT22;7922;43.622;1.476;2022-09-09T05:24:46;19.20;99.90
15646;DHT22;7922;43.622;1.476;2022-09-09T05:27:12;19.20;99.90
15646;DHT22;7922;43.622;1.476;2022-09-09T05:29:38;19.30;99.90
15646;DHT22;7922;43.622;1.476;2022-09-09T05:32:04;19.20;99.90
15646;DHT22;7922;43.622;1.476;2022-09-09T05:34:30;19.20;99.90
15646;DHT22;7922;43.622;1.476;2022-09-09T05:36:56;19.20;99.90
15646;DHT22;7922;43.622;1.476;2022-09-09T05:39:21;19.20;99.90
15646;DHT22;7922;43.622;1.476;2022-09-09T05:41:47;19.20;99.90
15646;DHT22;7922;43.622;1.476;2022-09-09T05:44:12;19.30;99.90
15646;DHT22;7922;43.622;1.476;2022-09-09T05:46:39;19.30;99.90
15646;DHT22;7922;43.622;1.476;2022-09-09T05:49:07;19.20;99.90
15646;DHT22;7922;43.622;1.476;2022-09-09T05:51:34;19.10;99.90
15646;DHT22;7922;43.622;1.476;2022-09-09T05:53:59;19.10;99.90
15646;DHT22;7922;43.622;1.476;2022-09-09T05:56:27;19.10;99.90
15646;DHT22;7922;43.622;1.476;2022-09-09T05:58:54;19.00;99.90
15646;DHT22;7922;43.622;1.476;2022-09-09T06:01:28;19.00;99.90
15646;DHT22;7922;43.622;1.476;2022-09-09T06:03:54;19.00;99.90
15646;DHT22;7922;43.622;1.476;2022-09-09T06:06:22;19.00;99.90
15646;DHT22;7922;43.622;1.476;2022-09-09T06:08:54;19.00;99.90
15646;DHT22;7922;43.622;1.476;2022-09-09T06:11:28;19.00;99.90
15646;DHT22;7922;43.622;1.476;2022-09-09T06:13:58;19.00;99.90
15646;DHT22;7922;43.622;1.476;2022-09-09T06:16:26;19.00;99.90
15646;DHT22;7922;43.622;1.476;2022-09-09T06:18:56;19.00;99.90
15646;DHT22;7922;43.622;1.476;2022-09-09T06:21:27;19.10;99.90
15646;DHT22;7922;43.622;1.476;2022-09-09T06:23:53;19.20;99.90
15646;DHT22;7922;43.622;1.476;2022-09-09T06:26:21;19.20;99.90
15646;DHT22;7922;43.622;1.476;2022-09-09T06:28:49;19.20;99.90
15646;DHT22;7922;43.622;1.476;2022-09-09T06:31:17;19.20;99.90
15646;DHT22;7922;43.622;1.476;2022-09-09T06:33:43;19.30;99.90
15646;DHT22;7922;43.622;1.476;2022-09-09T06:36:12;19.30;99.90
15646;DHT22;7922;43.622;1.476;2022-09-09T06:38:38;19.20;99.90
15646;DHT22;7922;43.622;1.476;2022-09-09T06:41:04;19.30;99.90
15646;DHT22;7922;43.622;1.476;2022-09-09T06:43:31;19.40;99.90
15646;DHT22;7922;43.622;1.476;2022-09-09T06:46:03;19.50;99.90
15646;DHT22;7922;43.622;1.476;2022-09-09T06:48:29;19.60;99.90
15646;DHT22;7922;43.622;1.476;2022-09-09T06:51:07;19.70;99.90
15646;DHT22;7922;43.622;1.476;2022-09-09T06:53:35;19.80;99.90
15646;DHT22;7922;43.622;1.476;2022-09-09T06:56:25;20.00;99.90
15646;DHT22;7922;43.622;1.476;2022-09-09T06:58:54;20.10;99.90
15646;DHT22;7922;43.622;1.476;2022-09-09T07:01:22;20.10;99.90
15646;DHT22;7922;43.622;1.476;2022-09-09T07:03:51;20.00;99.90
15646;DHT22;7922;43.622;1.476;2022-09-09T07:06:19;19.90;99.90
15646;DHT22;7922;43.622;1.476;2022-09-09T07:08:53;19.80;99.90
15646;DHT22;7922;43.622;1.476;2022-09-09T07:11:21;19.60;99.90
15646;DHT22;7922;43.622;1.476;2022-09-09T07:13:47;19.70;99.90
15646;DHT22;7922;43.622;1.476;2022-09-09T07:16:18;19.80;99.90
15646;DHT22;7922;43.622;1.476;2022-09-09T07:18:44;19.80;99.90
15646;DHT22;7922;43.622;1.476;2022-09-09T07:21:11;19.90;99.90
15646;DHT22;7922;43.622;1.476;2022-09-09T07:23:40;19.90;99.90
15646;DHT22;7922;43.622;1.476;2022-09-09T07:26:16;20.00;99.90
15646;DHT22;7922;43.622;1.476;2022-09-09T07:28:42;19.90;99.90
15646;DHT22;7922;43.622;1.476;2022-09-09T07:31:16;19.90;99.90
15646;DHT22;7922;43.622;1.476;2022-09-09T07:33:44;19.80;99.90
15646;DHT22;7922;43.622;1.476;2022-09-09T07:38:43;19.70;99.90
15646;DHT22;7922;43.622;1.476;2022-09-09T07:41:12;19.70;99.90
15646;DHT22;7922;43.622;1.476;2022-09-09T07:43:40;19.70;99.90
15646;DHT22;7922;43.622;1.476;2022-09-09T07:46:06;19.80;99.90
15646;DHT22;7922;43.622;1.476;2022-09-09T07:48:32;19.90;99.90
15646;DHT22;7922;43.622;1.476;2022-09-09T07:51:07;19.90;99.90
15646;DHT22;7922;43.622;1.476;2022-09-09T07:53:34;19.90;99.90
15646;DHT22;7922;43.622;1.476;2022-09-09T07:56:10;19.80;99.90
15646;DHT22;7922;43.622;1.476;2022-09-09T07:58:40;19.80;99.90
15646;DHT22;7922;43.622;1.476;2022-09-09T08:01:14;19.80;99.90
15646;DHT22;7922;43.622;1.476;2022-09-09T08:03:40;19.80;99.90
15646;DHT22;7922;43.622;1.476;2022-09-09T08:06:08;19.80;99.90
15646;DHT22;7922;43.622;1.476;2022-09-09T08:08:35;19.70;99.90
15646;DHT22;7922;43.622;1.476;2022-09-09T08:11:10;19.70;99.90
15646;DHT22;7922;43.622;1.476;2022-09-09T08:13:37;19.80;99.90
15646;DHT22;7922;43.622;1.476;2022-09-09T08:16:12;19.80;99.90
15646;DHT22;7922;43.622;1.476;2022-09-09T08:18:38;19.80;99.90
15646;DHT22;7922;43.622;1.476;2022-09-09T08:21:08;19.80;99.90
15646;DHT22;7922;43.622;1.476;2022-09-09T08:23:34;19.80;99.90
15646;DHT22;7922;43.622;1.476;2022-09-09T08:26:05;19.80;99.90
15646;DHT22;7922;43.622;1.476;2022-09-09T08:28:31;19.80;99.90
15646;DHT22;7922;43.622;1.476;2022-09-09T08:31:15;19.80;99.90
15646;DHT22;7922;43.622;1.476;2022-09-09T08:33:42;19.80;99.90
15646;DHT22;7922;43.622;1.476;2022-09-09T08:36:11;19.90;99.90
15646;DHT22;7922;43.622;1.476;2022-09-09T08:38:38;19.80;99.90
15646;DHT22;7922;43.622;1.476;2022-09-09T08:51:48;19.90;99.90
15646;DHT22;7922;43.622;1.476;2022-09-09T08:54:15;19.90;99.90
15646;DHT22;7922;43.622;1.476;2022-09-09T08:56:41;20.00;99.90
15646;DHT22;7922;43.622;1.476;2022-09-09T08:59:10;19.90;99.90
15646;DHT22;7922;43.622;1.476;2022-09-09T09:01:57;19.70;99.90
15646;DHT22;7922;43.622;1.476;2022-09-09T09:07:31;19.20;99.90
15646;DHT22;7922;43.622;1.476;2022-09-09T09:13:18;18.70;99.90
15646;DHT22;7922;43.622;1.476;2022-09-09T09:15:50;18.30;99.90
15646;DHT22;7922;43.622;1.476;2022-09-09T09:18:17;18.10;99.90
15646;DHT22;7922;43.622;1.476;2022-09-09T09:23:56;18.10;99.90
15646;DHT22;7922;43.622;1.476;2022-09-09T09:26:24;18.20;99.90
15646;DHT22;7922;43.622;1.476;2022-09-09T09:28:54;18.20;99.90
15646;DHT22;7922;43.622;1.476;2022-09-09T09:31:21;18.30;99.90
15646;DHT22;7922;43.622;1.476;2022-09-09T09:33:53;18.20;99.90
15646;DHT22;7922;43.622;1.476;2022-09-09T09:36:24;18.30;99.90
15646;DHT22;7922;43.622;1.476;2022-09-09T09:41:49;18.30;99.90
15646;DHT22;7922;43.622;1.476;2022-09-09T09:46:50;18.40;99.90
15646;DHT22;7922;43.622;1.476;2022-09-09T09:49:15;18.40;99.90
15646;DHT22;7922;43.622;1.476;2022-09-09T09:51:43;18.50;99.90
15646;DHT22;7922;43.622;1.476;2022-09-09T09:54:28;18.40;99.90
15646;DHT22;7922;43.622;1.476;2022-09-09T09:56:54;18.10;99.90
15646;DHT22;7922;43.622;1.476;2022-09-09T10:01:53;17.80;99.90
15646;DHT22;7922;43.622;1.476;2022-09-09T10:04:22;17.80;99.90
15646;DHT22;7922;43.622;1.476;2022-09-09T10:06:49;18.00;99.90
15646;DHT22;7922;43.622;1.476;2022-09-09T10:09:25;17.80;99.90
15646;DHT22;7922;43.622;1.476;2022-09-09T10:19:51;17.90;99.90
15646;DHT22;7922;43.622;1.476;2022-09-09T10:25:08;18.00;99.90
15646;DHT22;7922;43.622;1.476;2022-09-09T10:28:08;17.70;99.90
15646;DHT22;7922;43.622;1.476;2022-09-09T10:36:24;18.10;99.90
15646;DHT22;7922;43.622;1.476;2022-09-09T10:39:05;18.20;99.90
15646;DHT22;7922;43.622;1.476;2022-09-09T10:55:10;19.60;99.90
15646;DHT22;7922;43.622;1.476;2022-09-09T10:57:47;19.80;99.90
15646;DHT22;7922;43.622;1.476;2022-09-09T11:03:01;20.10;99.90
15646;DHT22;7922;43.622;1.476;2022-09-09T11:18:44;21.10;99.90
15646;DHT22;7922;43.622;1.476;2022-09-09T11:21:22;21.30;99.90
15646;DHT22;7922;43.622;1.476;2022-09-09T11:24:04;21.60;99.90
15646;DHT22;7922;43.622;1.476;2022-09-09T11:27:05;21.90;99.90
15646;DHT22;7922;43.622;1.476;2022-09-09T11:32:34;22.10;99.90
15646;DHT22;7922;43.622;1.476;2022-09-09T11:35:26;22.70;99.90
15646;DHT22;7922;43.622;1.476;2022-09-09T11:38:16;21.90;99.90
15646;DHT22;7922;43.622;1.476;2022-09-09T11:40:44;21.90;99.90
15646;DHT22;7922;43.622;1.476;2022-09-09T11:43:27;21.90;99.90
15646;DHT22;7922;43.622;1.476;2022-09-09T11:45:55;21.90;99.90
15646;DHT22;7922;43.622;1.476;2022-09-09T11:48:40;21.90;99.90
15646;DHT22;7922;43.622;1.476;2022-09-09T11:51:31;22.10;99.90
15646;DHT22;7922;43.622;1.476;2022-09-09T11:54:04;22.10;99.90
15646;DHT22;7922;43.622;1.476;2022-09-09T11:56:48;22.30;99.90
15646;DHT22;7922;43.622;1.476;2022-09-09T11:59:31;22.30;99.90
15646;DHT22;7922;43.622;1.476;2022-09-09T12:02:13;22.30;99.90
15646;DHT22;7922;43.622;1.476;2022-09-09T12:07:31;22.50;99.90
15646;DHT22;7922;43.622;1.476;2022-09-09T12:10:18;22.50;99.90
15646;DHT22;7922;43.622;1.476;2022-09-09T12:12:45;22.60;99.90
15646;DHT22;7922;43.622;1.476;2022-09-09T12:17:48;22.40;99.90
15646;DHT22;7922;43.622;1.476;2022-09-09T12:20:37;22.60;99.90
15646;DHT22;7922;43.622;1.476;2022-09-09T12:25:39;22.70;99.90
15646;DHT22;7922;43.622;1.476;2022-09-09T12:31:12;22.30;99.90
15646;DHT22;7922;43.622;1.476;2022-09-09T12:33:44;22.10;99.90
15646;DHT22;7922;43.622;1.476;2022-09-09T12:36:24;22.10;99.90
15646;DHT22;7922;43.622;1.476;2022-09-09T12:38:53;22.40;99.90
15646;DHT22;7922;43.622;1.476;2022-09-09T12:41:25;22.70;99.90
15646;DHT22;7922;43.622;1.476;2022-09-09T12:44:06;22.80;99.90
15646;DHT22;7922;43.622;1.476;2022-09-09T12:46:38;22.80;99.90
15646;DHT22;7922;43.622;1.476;2022-09-09T12:49:20;22.90;99.90
15646;DHT22;7922;43.622;1.476;2022-09-09T12:51:50;22.80;99.90
15646;DHT22;7922;43.622;1.476;2022-09-09T12:54:15;22.90;99.90
15646;DHT22;7922;43.622;1.476;2022-09-09T12:56:46;22.60;99.90
15646;DHT22;7922;43.622;1.476;2022-09-09T12:59:30;23.00;99.90
15646;DHT22;7922;43.622;1.476;2022-09-09T13:02:00;23.30;99.90
15646;DHT22;7922;43.622;1.476;2022-09-09T13:04:26;23.60;99.90
15646;DHT22;7922;43.622;1.476;2022-09-09T13:06:52;23.50;99.90
15646;DHT22;7922;43.622;1.476;2022-09-09T13:09:18;23.50;99.90
15646;DHT22;7922;43.622;1.476;2022-09-09T13:11:49;23.70;99.90
15646;DHT22;7922;43.622;1.476;2022-09-09T13:14:26;23.80;99.90
15646;DHT22;7922;43.622;1.476;2022-09-09T13:17:01;23.70;99.90
15646;DHT22;7922;43.622;1.476;2022-09-09T13:19:32;23.90;99.90
15646;DHT22;7922;43.622;1.476;2022-09-09T13:21:59;24.20;99.90
15646;DHT22;7922;43.622;1.476;2022-09-09T13:26:59;24.30;99.90
15646;DHT22;7922;43.622;1.476;2022-09-09T13:29:28;24.50;99.90
15646;DHT22;7922;43.622;1.476;2022-09-09T13:31:54;24.60;99.90
15646;DHT22;7922;43.622;1.476;2022-09-09T13:34:33;24.50;99.90
15646;DHT22;7922;43.622;1.476;2022-09-09T13:37:01;24.70;99.90
15646;DHT22;7922;43.622;1.476;2022-09-09T13:39:28;24.80;99.90
15646;DHT22;7922;43.622;1.476;2022-09-09T13:41:53;25.00;99.90
15646;DHT22;7922;43.622;1.476;2022-09-09T13:44:35;24.90;99.90
15646;DHT22;7922;43.622;1.476;2022-09-09T13:49:30;25.00;99.90
15646;DHT22;7922;43.622;1.476;2022-09-09T13:52:10;25.00;99.90
15646;DHT22;7922;43.622;1.476;2022-09-09T13:54:37;25.10;99.90
15646;DHT22;7922;43.622;1.476;2022-09-09T13:57:03;25.20;99.90
15646;DHT22;7922;43.622;1.476;2022-09-09T13:59:30;25.10;99.90
15646;DHT22;7922;43.622;1.476;2022-09-09T14:01:57;24.90;99.90
15646;DHT22;7922;43.622;1.476;2022-09-09T14:04:22;24.80;99.90
15646;DHT22;7922;43.622;1.476;2022-09-09T14:06:49;24.50;99.90
15646;DHT22;7922;43.622;1.476;2022-09-09T14:09:16;24.60;99.90
15646;DHT22;7922;43.622;1.476;2022-09-09T14:11:44;24.40;99.90
15646;DHT22;7922;43.622;1.476;2022-09-09T14:14:11;24.30;99.90
15646;DHT22;7922;43.622;1.476;2022-09-09T14:16:36;24.30;99.90
15646;DHT22;7922;43.622;1.476;2022-09-09T14:19:03;24.20;99.90
15646;DHT22;7922;43.622;1.476;2022-09-09T14:21:29;24.30;99.90
15646;DHT22;7922;43.622;1.476;2022-09-09T14:23:55;24.10;99.90
15646;DHT22;7922;43.622;1.476;2022-09-09T14:26:23;23.60;99.90
15646;DHT22;7922;43.622;1.476;2022-09-09T14:28:49;23.60;99.90
15646;DHT22;7922;43.622;1.476;2022-09-09T14:31:16;23.60;99.90
15646;DHT22;7922;43.622;1.476;2022-09-09T14:33:43;23.80;99.90
15646;DHT22;7922;43.622;1.476;2022-09-09T14:36:10;23.40;99.90
15646;DHT22;7922;43.622;1.476;2022-09-09T14:38:36;23.60;99.90
15646;DHT22;7922;43.622;1.476;2022-09-09T14:41:06;24.00;99.90
15646;DHT22;7922;43.622;1.476;2022-09-09T14:43:32;24.10;99.90
15646;DHT22;7922;43.622;1.476;2022-09-09T14:46:10;24.00;99.90
15646;DHT22;7922;43.622;1.476;2022-09-09T14:48:37;24.40;99.90
15646;DHT22;7922;43.622;1.476;2022-09-09T14:51:21;24.50;99.90
15646;DHT22;7922;43.622;1.476;2022-09-09T14:53:48;24.80;99.90
15646;DHT22;7922;43.622;1.476;2022-09-09T14:56:17;25.00;99.90
15646;DHT22;7922;43.622;1.476;2022-09-09T14:58:44;25.20;99.90
15646;DHT22;7922;43.622;1.476;2022-09-09T15:01:12;25.30;99.90
15646;DHT22;7922;43.622;1.476;2022-09-09T15:03:39;25.10;99.90
15646;DHT22;7922;43.622;1.476;2022-09-09T15:06:15;25.00;99.90
15646;DHT22;7922;43.622;1.476;2022-09-09T15:08:43;24.90;99.90
15646;DHT22;7922;43.622;1.476;2022-09-09T15:11:10;24.30;99.90
15646;DHT22;7922;43.622;1.476;2022-09-09T15:13:37;24.20;99.90
15646;DHT22;7922;43.622;1.476;2022-09-09T15:16:08;24.20;99.90
15646;DHT22;7922;43.622;1.476;2022-09-09T15:18:34;24.30;99.90
15646;DHT22;7922;43.622;1.476;2022-09-09T15:21:05;24.30;99.90
15646;DHT22;7922;43.622;1.476;2022-09-09T15:23:34;24.10;99.90
15646;DHT22;7922;43.622;1.476;2022-09-09T15:26:00;24.10;99.90
15646;DHT22;7922;43.622;1.476;2022-09-09T15:28:26;24.00;99.90
15646;DHT22;7922;43.622;1.476;2022-09-09T15:30:53;23.90;99.90
15646;DHT22;7922;43.622;1.476;2022-09-09T15:33:20;23.90;99.90
15646;DHT22;7922;43.622;1.476;2022-09-09T15:35:47;23.50;99.90
15646;DHT22;7922;43.622;1.476;2022-09-09T15:38:14;23.30;99.90
15646;DHT22;7922;43.622;1.476;2022-09-09T15:40:40;23.10;99.90
15646;DHT22;7922;43.622;1.476;2022-09-09T15:43:07;23.10;99.90
15646;DHT22;7922;43.622;1.476;2022-09-09T15:45:33;23.10;99.90
15646;DHT22;7922;43.622;1.476;2022-09-09T15:48:03;23.10;99.90
15646;DHT22;7922;43.622;1.476;2022-09-09T15:50:29;23.00;99.90
15646;DHT22;7922;43.622;1.476;2022-09-09T15:52:59;22.90;99.90
15646;DHT22;7922;43.622;1.476;2022-09-09T15:55:25;23.00;99.90
15646;DHT22;7922;43.622;1.476;2022-09-09T15:57:51;23.00;99.90
15646;DHT22;7922;43.622;1.476;2022-09-09T16:00:18;22.90;99.90
15646;DHT22;7922;43.622;1.476;2022-09-09T16:02:46;22.90;99.90
15646;DHT22;7922;43.622;1.476;2022-09-09T16:05:12;23.00;99.90
15646;DHT22;7922;43.622;1.476;2022-09-09T16:07:38;23.00;99.90
15646;DHT22;7922;43.622;1.476;2022-09-09T16:10:03;23.00;99.90
15646;DHT22;7922;43.622;1.476;2022-09-09T16:12:29;23.10;99.90
15646;DHT22;7922;43.622;1.476;2022-09-09T16:14:55;23.10;99.90
15646;DHT22;7922;43.622;1.476;2022-09-09T16:17:21;23.10;99.90
15646;DHT22;7922;43.622;1.476;2022-09-09T16:19:47;23.20;99.90
15646;DHT22;7922;43.622;1.476;2022-09-09T16:22:12;23.20;99.90
15646;DHT22;7922;43.622;1.476;2022-09-09T16:24:40;23.30;99.90
15646;DHT22;7922;43.622;1.476;2022-09-09T16:27:06;23.30;99.90
15646;DHT22;7922;43.622;1.476;2022-09-09T16:29:32;23.40;99.90
15646;DHT22;7922;43.622;1.476;2022-09-09T16:31:58;23.30;99.90
15646;DHT22;7922;43.622;1.476;2022-09-09T16:34:25;23.30;99.90
15646;DHT22;7922;43.622;1.476;2022-09-09T16:36:51;23.30;99.90
15646;DHT22;7922;43.622;1.476;2022-09-09T16:39:20;23.30;99.90
15646;DHT22;7922;43.622;1.476;2022-09-09T16:41:47;23.30;99.90
15646;DHT22;7922;43.622;1.476;2022-09-09T16:44:15;23.30;99.90
15646;DHT22;7922;43.622;1.476;2022-09-09T16:46:46;23.40;99.90
15646;DHT22;7922;43.622;1.476;2022-09-09T16:49:14;23.30;99.90
15646;DHT22;7922;43.622;1.476;2022-09-09T16:51:44;23.30;99.90
15646;DHT22;7922;43.622;1.476;2022-09-09T16:54:11;23.20;99.90
15646;DHT22;7922;43.622;1.476;2022-09-09T16:56:40;23.20;99.90
15646;DHT22;7922;43.622;1.476;2022-09-09T16:59:18;23.20;99.90
15646;DHT22;7922;43.622;1.476;2022-09-09T17:01:45;23.20;99.90
15646;DHT22;7922;43.622;1.476;2022-09-09T17:04:20;23.30;99.90
15646;DHT22;7922;43.622;1.476;2022-09-09T17:06:50;23.30;99.90
15646;DHT22;7922;43.622;1.476;2022-09-09T17:09:17;23.20;99.90
15646;DHT22;7922;43.622;1.476;2022-09-09T17:11:43;23.20;99.90
15646;DHT22;7922;43.622;1.476;2022-09-09T17:14:13;23.10;99.90
15646;DHT22;7922;43.622;1.476;2022-09-09T17:16:39;23.10;99.90
15646;DHT22;7922;43.622;1.476;2022-09-09T17:19:06;23.10;99.90
15646;DHT22;7922;43.622;1.476;2022-09-09T17:21:33;23.10;99.90
15646;DHT22;7922;43.622;1.476;2022-09-09T17:24:00;21.90;99.90
15646;DHT22;7922;43.622;1.476;2022-09-09T17:26:28;23.20;99.90
15646;DHT22;7922;43.622;1.476;2022-09-09T17:28:55;23.30;99.90
15646;DHT22;7922;43.622;1.476;2022-09-09T17:31:22;23.30;99.90
15646;DHT22;7922;43.622;1.476;2022-09-09T17:33:49;23.30;99.90
15646;DHT22;7922;43.622;1.476;2022-09-09T17:36:18;23.30;99.90
15646;DHT22;7922;43.622;1.476;2022-09-09T17:38:44;23.20;99.90
15646;DHT22;7922;43.622;1.476;2022-09-09T17:41:18;23.10;99.90
15646;DHT22;7922;43.622;1.476;2022-09-09T17:43:45;23.00;99.90
15646;DHT22;7922;43.622;1.476;2022-09-09T17:46:13;22.90;99.90
15646;DHT22;7922;43.622;1.476;2022-09-09T17:48:40;22.80;99.90
15646;DHT22;7922;43.622;1.476;2022-09-09T17:51:08;22.80;99.90
15646;DHT22;7922;43.622;1.476;2022-09-09T17:53:42;22.60;99.90
15646;DHT22;7922;43.622;1.476;2022-09-09T17:56:10;22.60;99.90
15646;DHT22;7922;43.622;1.476;2022-09-09T17:58:37;22.50;99.90
15646;DHT22;7922;43.622;1.476;2022-09-09T18:03:32;22.30;99.90
15646;DHT22;7922;43.622;1.476;2022-09-09T18:06:04;22.20;99.90
15646;DHT22;7922;43.622;1.476;2022-09-09T18:08:30;22.20;99.90
15646;DHT22;7922;43.622;1.476;2022-09-09T18:10:57;22.00;99.90
15646;DHT22;7922;43.622;1.476;2022-09-09T18:13:23;22.00;99.90
15646;DHT22;7922;43.622;1.476;2022-09-09T18:15:48;21.90;99.90
15646;DHT22;7922;43.622;1.476;2022-09-09T18:18:14;21.80;99.90
15646;DHT22;7922;43.622;1.476;2022-09-09T18:20:40;21.70;99.90
15646;DHT22;7922;43.622;1.476;2022-09-09T18:23:06;21.60;99.90
15646;DHT22;7922;43.622;1.476;2022-09-09T18:25:37;21.60;99.90
15646;DHT22;7922;43.622;1.476;2022-09-09T18:28:04;21.50;99.90
15646;DHT22;7922;43.622;1.476;2022-09-09T18:30:30;21.40;99.90
15646;DHT22;7922;43.622;1.476;2022-09-09T18:32:56;21.40;99.90
15646;DHT22;7922;43.622;1.476;2022-09-09T18:35:22;21.30;99.90